sensor_id;sensor_type;location;lat;lon;timestamp;P1;durP1;ratioP1;P2;durP2;ratioP2
42226;SDS011;27892;52.378;13.122;2023-03-20T00:00:27;2.00;;;1.90;;
42226;SDS011;27892;52.378;13.122;2023-03-20T00:02:59;2.20;;;2.00;;
42226;SDS011;27892;52.378;13.122;2023-03-20T00:05:26;1.97;;;1.87;;
42226;SDS011;27892;52.378;13.122;2023-03-20T00:07:54;2.10;;;2.00;;
42226;SDS011;27892;52.378;13.122;2023-03-20T00:10:23;2.40;;;2.20;;
42226;SDS011;27892;52.378;13.122;2023-03-20T00:12:53;2.33;;;2.20;;
42226;SDS011;27892;52.378;13.122;2023-03-20T00:18:12;2.10;;;2.00;;
42226;SDS011;27892;52.378;13.122;2023-03-20T00:20:43;2.03;;;1.93;;
42226;SDS011;27892;52.378;13.122;2023-03-20T00:23:28;1.90;;;1.80;;
42226;SDS011;27892;52.378;13.122;2023-03-20T00:26:13;2.03;;;1.93;;
42226;SDS011;27892;52.378;13.122;2023-03-20T00:29:01;2.10;;;2.00;;
42226;SDS011;27892;52.378;13.122;2023-03-20T00:31:47;2.20;;;2.10;;
42226;SDS011;27892;52.378;13.122;2023-03-20T00:34:14;2.30;;;2.20;;
42226;SDS011;27892;52.378;13.122;2023-03-20T00:36:41;2.00;;;1.90;;
42226;SDS011;27892;52.378;13.122;2023-03-20T00:39:07;2.00;;;1.90;;
42226;SDS011;27892;52.378;13.122;2023-03-20T00:46:52;2.33;;;2.13;;
42226;SDS011;27892;52.378;13.122;2023-03-20T00:49:24;2.10;;;2.00;;
42226;SDS011;27892;52.378;13.122;2023-03-20T00:51:52;2.90;;;2.33;;
42226;SDS011;27892;52.378;13.122;2023-03-20T00:54:18;2.80;;;2.60;;
42226;SDS011;27892;52.378;13.122;2023-03-20T00:56:58;3.43;;;2.77;;
42226;SDS011;27892;52.378;13.122;2023-03-20T00:59:28;2.50;;;2.30;;
42226;SDS011;27892;52.378;13.122;2023-03-20T01:01:58;2.70;;;2.50;;
42226;SDS011;27892;52.378;13.122;2023-03-20T01:04:26;2.27;;;2.17;;
42226;SDS011;27892;52.378;13.122;2023-03-20T01:06:59;2.17;;;2.07;;
42226;SDS011;27892;52.378;13.122;2023-03-20T01:09:25;2.10;;;2.00;;
42226;SDS011;27892;52.378;13.122;2023-03-20T01:11:51;2.00;;;1.90;;
42226;SDS011;27892;52.378;13.122;2023-03-20T01:14:17;1.67;;;1.63;;
42226;SDS011;27892;52.378;13.122;2023-03-20T01:16:42;1.60;;;1.50;;
42226;SDS011;27892;52.378;13.122;2023-03-20T01:19:12;1.60;;;1.50;;
42226;SDS011;27892;52.378;13.122;2023-03-20T01:21:39;1.80;;;1.70;;
42226;SDS011;27892;52.378;13.122;2023-03-20T01:24:05;1.53;;;1.47;;
42226;SDS011;27892;52.378;13.122;2023-03-20T01:26:39;2.20;;;2.00;;
42226;SDS011;27892;52.378;13.122;2023-03-20T01:29:39;3.60;;;2.90;;
42226;SDS011;27892;52.378;13.122;2023-03-20T01:31:58;2.43;;;2.23;;
42226;SDS011;27892;52.378;13.122;2023-03-20T01:34:23;2.40;;;2.20;;
42226;SDS011;27892;52.378;13.122;2023-03-20T01:36:50;2.00;;;1.90;;
42226;SDS011;27892;52.378;13.122;2023-03-20T01:39:20;1.80;;;1.70;;
42226;SDS011;27892;52.378;13.122;2023-03-20T01:41:48;1.97;;;1.80;;
42226;SDS011;27892;52.378;13.122;2023-03-20T01:44:24;2.00;;;1.90;;
42226;SDS011;27892;52.378;13.122;2023-03-20T01:46:52;2.10;;;2.00;;
42226;SDS011;27892;52.378;13.122;2023-03-20T01:51:45;1.93;;;1.83;;
42226;SDS011;27892;52.378;13.122;2023-03-20T01:56:45;1.50;;;1.50;;
42226;SDS011;27892;52.378;13.122;2023-03-20T01:59:28;1.77;;;1.67;;
42226;SDS011;27892;52.378;13.122;2023-03-20T02:01:58;1.80;;;1.70;;
42226;SDS011;27892;52.378;13.122;2023-03-20T02:04:25;2.30;;;2.10;;
42226;SDS011;27892;52.378;13.122;2023-03-20T02:07:02;2.50;;;2.30;;
42226;SDS011;27892;52.378;13.122;2023-03-20T02:09:31;2.93;;;2.73;;
42226;SDS011;27892;52.378;13.122;2023-03-20T02:11:56;2.57;;;2.37;;
42226;SDS011;27892;52.378;13.122;2023-03-20T02:14:24;2.30;;;2.20;;
42226;SDS011;27892;52.378;13.122;2023-03-20T02:16:51;2.13;;;2.03;;
42226;SDS011;27892;52.378;13.122;2023-03-20T02:19:20;2.10;;;2.00;;
42226;SDS011;27892;52.378;13.122;2023-03-20T02:24:43;2.17;;;2.07;;
42226;SDS011;27892;52.378;13.122;2023-03-20T02:28:03;1.90;;;1.80;;
42226;SDS011;27892;52.378;13.122;2023-03-20T02:36:44;1.83;;;1.73;;
42226;SDS011;27892;52.378;13.122;2023-03-20T02:39:18;2.10;;;2.00;;
42226;SDS011;27892;52.378;13.122;2023-03-20T02:44:57;1.83;;;1.73;;
42226;SDS011;27892;52.378;13.122;2023-03-20T02:59:16;1.97;;;1.87;;
42226;SDS011;27892;52.378;13.122;2023-03-20T03:01:52;2.07;;;1.97;;
42226;SDS011;27892;52.378;13.122;2023-03-20T03:04:25;2.03;;;1.93;;
42226;SDS011;27892;52.378;13.122;2023-03-20T03:06:53;2.10;;;2.00;;
42226;SDS011;27892;52.378;13.122;2023-03-20T03:09:23;2.40;;;2.20;;
42226;SDS011;27892;52.378;13.122;2023-03-20T03:11:57;2.10;;;2.00;;
42226;SDS011;27892;52.378;13.122;2023-03-20T03:14:37;2.60;;;2.40;;
42226;SDS011;27892;52.378;13.122;2023-03-20T03:17:07;2.70;;;2.47;;
42226;SDS011;27892;52.378;13.122;2023-03-20T03:19:35;5.00;;;4.50;;
42226;SDS011;27892;52.378;13.122;2023-03-20T03:22:03;5.20;;;4.70;;
42226;SDS011;27892;52.378;13.122;2023-03-20T03:24:34;4.03;;;3.67;;
42226;SDS011;27892;52.378;13.122;2023-03-20T03:27:03;3.30;;;3.00;;
42226;SDS011;27892;52.378;13.122;2023-03-20T03:29:55;2.87;;;2.67;;
42226;SDS011;27892;52.378;13.122;2023-03-20T03:32:27;2.80;;;2.60;;
42226;SDS011;27892;52.378;13.122;2023-03-20T03:34:58;2.80;;;2.60;;
42226;SDS011;27892;52.378;13.122;2023-03-20T03:40:35;3.83;;;3.53;;
42226;SDS011;27892;52.378;13.122;2023-03-20T03:43:42;4.10;;;3.70;;
42226;SDS011;27892;52.378;13.122;2023-03-20T03:49:59;3.20;;;2.90;;
42226;SDS011;27892;52.378;13.122;2023-03-20T03:52:48;2.70;;;2.50;;
42226;SDS011;27892;52.378;13.122;2023-03-20T03:55:18;3.50;;;3.20;;
42226;SDS011;27892;52.378;13.122;2023-03-20T03:57:50;3.43;;;3.13;;
42226;SDS011;27892;52.378;13.122;2023-03-20T04:00:24;3.57;;;3.30;;
42226;SDS011;27892;52.378;13.122;2023-03-20T04:02:53;3.00;;;2.80;;
42226;SDS011;27892;52.378;13.122;2023-03-20T04:05:20;3.23;;;3.03;;
42226;SDS011;27892;52.378;13.122;2023-03-20T04:07:51;3.10;;;2.80;;
42226;SDS011;27892;52.378;13.122;2023-03-20T04:10:18;3.20;;;2.70;;
42226;SDS011;27892;52.378;13.122;2023-03-20T04:12:45;3.50;;;3.20;;
42226;SDS011;27892;52.378;13.122;2023-03-20T04:15:11;3.60;;;3.30;;
42226;SDS011;27892;52.378;13.122;2023-03-20T04:17:38;4.40;;;4.00;;
42226;SDS011;27892;52.378;13.122;2023-03-20T04:20:06;4.10;;;3.33;;
42226;SDS011;27892;52.378;13.122;2023-03-20T04:22:33;3.20;;;3.00;;
42226;SDS011;27892;52.378;13.122;2023-03-20T04:25:03;3.37;;;3.07;;
42226;SDS011;27892;52.378;13.122;2023-03-20T04:27:29;2.90;;;2.70;;
42226;SDS011;27892;52.378;13.122;2023-03-20T04:29:55;2.70;;;2.50;;
42226;SDS011;27892;52.378;13.122;2023-03-20T04:32:21;2.73;;;2.53;;
42226;SDS011;27892;52.378;13.122;2023-03-20T04:34:47;2.63;;;2.43;;
42226;SDS011;27892;52.378;13.122;2023-03-20T04:37:13;2.60;;;2.40;;
42226;SDS011;27892;52.378;13.122;2023-03-20T04:39:38;2.67;;;2.47;;
42226;SDS011;27892;52.378;13.122;2023-03-20T04:42:06;2.43;;;2.23;;
42226;SDS011;27892;52.378;13.122;2023-03-20T04:44:32;2.03;;;1.93;;
42226;SDS011;27892;52.378;13.122;2023-03-20T04:46:58;2.37;;;2.27;;
42226;SDS011;27892;52.378;13.122;2023-03-20T04:49:24;2.60;;;2.40;;
42226;SDS011;27892;52.378;13.122;2023-03-20T04:51:50;3.73;;;3.43;;
42226;SDS011;27892;52.378;13.122;2023-03-20T04:54:16;3.67;;;3.37;;
42226;SDS011;27892;52.378;13.122;2023-03-20T04:56:42;3.50;;;3.20;;
42226;SDS011;27892;52.378;13.122;2023-03-20T04:59:08;3.47;;;3.17;;
42226;SDS011;27892;52.378;13.122;2023-03-20T05:01:33;3.40;;;3.10;;
42226;SDS011;27892;52.378;13.122;2023-03-20T05:03:59;3.47;;;3.17;;
42226;SDS011;27892;52.378;13.122;2023-03-20T05:06:29;4.53;;;4.13;;
42226;SDS011;27892;52.378;13.122;2023-03-20T05:08:56;3.67;;;3.37;;
42226;SDS011;27892;52.378;13.122;2023-03-20T05:11:23;4.03;;;3.43;;
42226;SDS011;27892;52.378;13.122;2023-03-20T05:13:49;4.80;;;3.80;;
42226;SDS011;27892;52.378;13.122;2023-03-20T05:16:15;4.20;;;3.80;;
42226;SDS011;27892;52.378;13.122;2023-03-20T05:18:41;4.37;;;3.97;;
42226;SDS011;27892;52.378;13.122;2023-03-20T05:21:07;7.00;;;5.90;;
42226;SDS011;27892;52.378;13.122;2023-03-20T05:23:33;6.00;;;5.40;;
42226;SDS011;27892;52.378;13.122;2023-03-20T05:25:59;6.50;;;5.40;;
42226;SDS011;27892;52.378;13.122;2023-03-20T05:28:25;4.93;;;4.43;;
42226;SDS011;27892;52.378;13.122;2023-03-20T05:30:51;7.00;;;5.17;;
42226;SDS011;27892;52.378;13.122;2023-03-20T05:33:17;4.53;;;4.13;;
42226;SDS011;27892;52.378;13.122;2023-03-20T05:35:42;5.87;;;4.93;;
42226;SDS011;27892;52.378;13.122;2023-03-20T05:38:08;5.40;;;4.60;;
42226;SDS011;27892;52.378;13.122;2023-03-20T05:40:34;4.30;;;3.90;;
42226;SDS011;27892;52.378;13.122;2023-03-20T05:43:00;4.10;;;3.70;;
42226;SDS011;27892;52.378;13.122;2023-03-20T05:45:25;5.60;;;4.80;;
42226;SDS011;27892;52.378;13.122;2023-03-20T05:47:51;4.83;;;4.37;;
42226;SDS011;27892;52.378;13.122;2023-03-20T05:50:17;9.37;;;6.40;;
42226;SDS011;27892;52.378;13.122;2023-03-20T05:52:45;6.80;;;5.63;;
42226;SDS011;27892;52.378;13.122;2023-03-20T05:55:12;7.47;;;6.17;;
42226;SDS011;27892;52.378;13.122;2023-03-20T05:57:38;10.93;;;8.30;;
42226;SDS011;27892;52.378;13.122;2023-03-20T06:00:04;9.97;;;7.77;;
42226;SDS011;27892;52.378;13.122;2023-03-20T06:02:30;8.60;;;6.90;;
42226;SDS011;27892;52.378;13.122;2023-03-20T06:04:56;12.77;;;9.10;;
42226;SDS011;27892;52.378;13.122;2023-03-20T06:07:22;12.93;;;9.83;;
42226;SDS011;27892;52.378;13.122;2023-03-20T06:09:48;13.43;;;9.83;;
42226;SDS011;27892;52.378;13.122;2023-03-20T06:12:13;13.93;;;10.67;;
42226;SDS011;27892;52.378;13.122;2023-03-20T06:14:40;14.90;;;11.23;;
42226;SDS011;27892;52.378;13.122;2023-03-20T06:17:05;14.70;;;10.50;;
42226;SDS011;27892;52.378;13.122;2023-03-20T06:19:31;13.80;;;10.40;;
42226;SDS011;27892;52.378;13.122;2023-03-20T06:21:57;19.80;;;13.07;;
42226;SDS011;27892;52.378;13.122;2023-03-20T06:24:22;18.10;;;13.47;;
42226;SDS011;27892;52.378;13.122;2023-03-20T06:26:48;19.37;;;13.13;;
42226;SDS011;27892;52.378;13.122;2023-03-20T06:29:14;21.17;;;14.43;;
42226;SDS011;27892;52.378;13.122;2023-03-20T06:31:40;18.70;;;13.70;;
42226;SDS011;27892;52.378;13.122;2023-03-20T06:34:06;20.07;;;13.07;;
42226;SDS011;27892;52.378;13.122;2023-03-20T06:36:31;15.93;;;12.73;;
42226;SDS011;27892;52.378;13.122;2023-03-20T06:38:57;25.40;;;17.77;;
42226;SDS011;27892;52.378;13.122;2023-03-20T06:41:23;23.93;;;16.97;;
42226;SDS011;27892;52.378;13.122;2023-03-20T06:43:48;22.67;;;15.47;;
42226;SDS011;27892;52.378;13.122;2023-03-20T06:46:14;22.97;;;15.07;;
42226;SDS011;27892;52.378;13.122;2023-03-20T06:48:40;29.07;;;18.60;;
42226;SDS011;27892;52.378;13.122;2023-03-20T06:51:05;24.30;;;16.43;;
42226;SDS011;27892;52.378;13.122;2023-03-20T06:53:32;31.50;;;20.37;;
42226;SDS011;27892;52.378;13.122;2023-03-20T06:55:57;26.93;;;17.17;;
42226;SDS011;27892;52.378;13.122;2023-03-20T06:58:23;30.80;;;18.70;;
42226;SDS011;27892;52.378;13.122;2023-03-20T07:00:49;28.83;;;18.57;;
42226;SDS011;27892;52.378;13.122;2023-03-20T07:03:16;27.97;;;17.33;;
42226;SDS011;27892;52.378;13.122;2023-03-20T07:05:42;24.13;;;15.83;;
42226;SDS011;27892;52.378;13.122;2023-03-20T07:08:08;29.50;;;17.43;;
42226;SDS011;27892;52.378;13.122;2023-03-20T07:10:34;27.40;;;16.57;;
42226;SDS011;27892;52.378;13.122;2023-03-20T07:13:00;33.20;;;18.60;;
42226;SDS011;27892;52.378;13.122;2023-03-20T07:15:26;30.17;;;18.37;;
42226;SDS011;27892;52.378;13.122;2023-03-20T07:17:53;29.13;;;17.20;;
42226;SDS011;27892;52.378;13.122;2023-03-20T07:20:19;28.27;;;16.27;;
42226;SDS011;27892;52.378;13.122;2023-03-20T07:22:44;30.80;;;17.87;;
42226;SDS011;27892;52.378;13.122;2023-03-20T07:25:12;26.50;;;15.10;;
42226;SDS011;27892;52.378;13.122;2023-03-20T07:27:38;27.63;;;16.53;;
42226;SDS011;27892;52.378;13.122;2023-03-20T07:30:04;28.30;;;16.70;;
42226;SDS011;27892;52.378;13.122;2023-03-20T07:32:31;25.73;;;14.77;;
42226;SDS011;27892;52.378;13.122;2023-03-20T07:34:56;26.93;;;15.87;;
42226;SDS011;27892;52.378;13.122;2023-03-20T07:37:22;25.07;;;14.37;;
42226;SDS011;27892;52.378;13.122;2023-03-20T07:39:48;25.60;;;15.27;;
42226;SDS011;27892;52.378;13.122;2023-03-20T07:42:14;27.43;;;15.70;;
42226;SDS011;27892;52.378;13.122;2023-03-20T07:44:40;28.30;;;17.37;;
42226;SDS011;27892;52.378;13.122;2023-03-20T07:47:06;25.17;;;14.47;;
42226;SDS011;27892;52.378;13.122;2023-03-20T07:49:32;28.50;;;16.63;;
42226;SDS011;27892;52.378;13.122;2023-03-20T07:51:58;26.00;;;14.57;;
42226;SDS011;27892;52.378;13.122;2023-03-20T07:54:24;28.67;;;17.17;;
42226;SDS011;27892;52.378;13.122;2023-03-20T07:56:50;28.10;;;16.50;;
42226;SDS011;27892;52.378;13.122;2023-03-20T07:59:17;25.93;;;15.67;;
42226;SDS011;27892;52.378;13.122;2023-03-20T08:01:42;21.80;;;13.67;;
42226;SDS011;27892;52.378;13.122;2023-03-20T08:04:08;26.63;;;15.47;;
42226;SDS011;27892;52.378;13.122;2023-03-20T08:06:34;27.73;;;15.93;;
42226;SDS011;27892;52.378;13.122;2023-03-20T08:09:00;24.40;;;14.53;;
42226;SDS011;27892;52.378;13.122;2023-03-20T08:11:25;26.27;;;15.33;;
42226;SDS011;27892;52.378;13.122;2023-03-20T08:13:51;32.07;;;17.50;;
42226;SDS011;27892;52.378;13.122;2023-03-20T08:16:17;27.97;;;16.23;;
42226;SDS011;27892;52.378;13.122;2023-03-20T08:18:43;30.57;;;16.43;;
42226;SDS011;27892;52.378;13.122;2023-03-20T08:21:08;28.20;;;14.83;;
42226;SDS011;27892;52.378;13.122;2023-03-20T08:23:35;25.10;;;14.47;;
42226;SDS011;27892;52.378;13.122;2023-03-20T08:26:01;29.50;;;15.43;;
42226;SDS011;27892;52.378;13.122;2023-03-20T08:28:26;30.23;;;16.23;;
42226;SDS011;27892;52.378;13.122;2023-03-20T08:30:52;24.73;;;14.37;;
42226;SDS011;27892;52.378;13.122;2023-03-20T08:33:18;21.37;;;12.20;;
42226;SDS011;27892;52.378;13.122;2023-03-20T08:35:43;25.53;;;15.07;;
42226;SDS011;27892;52.378;13.122;2023-03-20T08:38:19;24.57;;;14.73;;
42226;SDS011;27892;52.378;13.122;2023-03-20T08:40:45;21.00;;;12.40;;
42226;SDS011;27892;52.378;13.122;2023-03-20T08:43:11;21.00;;;12.60;;
42226;SDS011;27892;52.378;13.122;2023-03-20T08:45:36;24.77;;;13.87;;
42226;SDS011;27892;52.378;13.122;2023-03-20T08:48:02;22.37;;;13.83;;
42226;SDS011;27892;52.378;13.122;2023-03-20T08:50:28;19.33;;;11.27;;
42226;SDS011;27892;52.378;13.122;2023-03-20T08:52:54;17.80;;;11.73;;
42226;SDS011;27892;52.378;13.122;2023-03-20T08:55:19;18.67;;;11.20;;
42226;SDS011;27892;52.378;13.122;2023-03-20T08:57:45;21.03;;;12.27;;
42226;SDS011;27892;52.378;13.122;2023-03-20T09:00:12;19.23;;;11.17;;
42226;SDS011;27892;52.378;13.122;2023-03-20T09:02:39;21.30;;;11.87;;
42226;SDS011;27892;52.378;13.122;2023-03-20T09:05:06;16.37;;;10.33;;
42226;SDS011;27892;52.378;13.122;2023-03-20T09:07:32;18.77;;;11.47;;
42226;SDS011;27892;52.378;13.122;2023-03-20T09:09:57;19.27;;;11.23;;
42226;SDS011;27892;52.378;13.122;2023-03-20T09:12:23;17.63;;;10.73;;
42226;SDS011;27892;52.378;13.122;2023-03-20T09:14:49;18.77;;;12.33;;
42226;SDS011;27892;52.378;13.122;2023-03-20T09:17:14;20.23;;;11.97;;
42226;SDS011;27892;52.378;13.122;2023-03-20T09:19:40;19.13;;;11.07;;
42226;SDS011;27892;52.378;13.122;2023-03-20T09:22:10;17.70;;;11.07;;
42226;SDS011;27892;52.378;13.122;2023-03-20T09:24:38;18.60;;;11.07;;
42226;SDS011;27892;52.378;13.122;2023-03-20T09:27:03;16.93;;;10.00;;
42226;SDS011;27892;52.378;13.122;2023-03-20T09:29:29;16.47;;;9.53;;
42226;SDS011;27892;52.378;13.122;2023-03-20T09:31:55;16.57;;;10.27;;
42226;SDS011;27892;52.378;13.122;2023-03-20T09:34:21;17.47;;;10.03;;
42226;SDS011;27892;52.378;13.122;2023-03-20T09:36:46;16.60;;;10.40;;
42226;SDS011;27892;52.378;13.122;2023-03-20T09:39:12;18.33;;;11.23;;
42226;SDS011;27892;52.378;13.122;2023-03-20T09:41:38;16.87;;;10.17;;
42226;SDS011;27892;52.378;13.122;2023-03-20T09:49:36;13.20;;;8.63;;
42226;SDS011;27892;52.378;13.122;2023-03-20T09:52:14;17.10;;;11.30;;
42226;SDS011;27892;52.378;13.122;2023-03-20T09:55:01;12.77;;;7.97;;
42226;SDS011;27892;52.378;13.122;2023-03-20T09:57:55;10.73;;;7.30;;
42226;SDS011;27892;52.378;13.122;2023-03-20T10:00:24;9.90;;;6.30;;
42226;SDS011;27892;52.378;13.122;2023-03-20T10:05:29;12.30;;;7.37;;
42226;SDS011;27892;52.378;13.122;2023-03-20T10:08:13;11.77;;;6.73;;
42226;SDS011;27892;52.378;13.122;2023-03-20T10:13:26;10.37;;;6.27;;
42226;SDS011;27892;52.378;13.122;2023-03-20T10:15:59;8.90;;;6.37;;
42226;SDS011;27892;52.378;13.122;2023-03-20T10:18:39;10.03;;;6.40;;
42226;SDS011;27892;52.378;13.122;2023-03-20T10:21:17;12.00;;;7.57;;
42226;SDS011;27892;52.378;13.122;2023-03-20T10:24:12;9.17;;;5.87;;
42226;SDS011;27892;52.378;13.122;2023-03-20T10:26:48;12.30;;;8.10;;
42226;SDS011;27892;52.378;13.122;2023-03-20T10:32:13;8.87;;;5.30;;
42226;SDS011;27892;52.378;13.122;2023-03-20T10:34:54;9.10;;;5.83;;
42226;SDS011;27892;52.378;13.122;2023-03-20T10:40:37;11.63;;;6.63;;
42226;SDS011;27892;52.378;13.122;2023-03-20T10:48:25;11.90;;;6.80;;
42226;SDS011;27892;52.378;13.122;2023-03-20T10:50:54;10.40;;;6.30;;
42226;SDS011;27892;52.378;13.122;2023-03-20T10:53:31;9.40;;;6.43;;
42226;SDS011;27892;52.378;13.122;2023-03-20T10:56:53;10.43;;;6.47;;
42226;SDS011;27892;52.378;13.122;2023-03-20T10:58:58;11.47;;;7.20;;
42226;SDS011;27892;52.378;13.122;2023-03-20T11:01:29;13.13;;;7.60;;
42226;SDS011;27892;52.378;13.122;2023-03-20T11:03:55;9.30;;;6.23;;
42226;SDS011;27892;52.378;13.122;2023-03-20T11:06:30;10.87;;;7.20;;
42226;SDS011;27892;52.378;13.122;2023-03-20T11:09:07;11.47;;;7.33;;
42226;SDS011;27892;52.378;13.122;2023-03-20T11:11:47;8.67;;;5.67;;
42226;SDS011;27892;52.378;13.122;2023-03-20T11:14:17;11.13;;;6.33;;
42226;SDS011;27892;52.378;13.122;2023-03-20T11:16:48;10.80;;;6.90;;
42226;SDS011;27892;52.378;13.122;2023-03-20T11:19:19;13.47;;;7.70;;
42226;SDS011;27892;52.378;13.122;2023-03-20T11:21:47;12.13;;;7.00;;
42226;SDS011;27892;52.378;13.122;2023-03-20T11:27:13;9.17;;;5.80;;
42226;SDS011;27892;52.378;13.122;2023-03-20T11:29:47;10.73;;;5.87;;
42226;SDS011;27892;52.378;13.122;2023-03-20T11:34:55;10.40;;;6.73;;
42226;SDS011;27892;52.378;13.122;2023-03-20T11:37:35;10.63;;;6.70;;
42226;SDS011;27892;52.378;13.122;2023-03-20T11:42:56;9.70;;;6.03;;
42226;SDS011;27892;52.378;13.122;2023-03-20T11:45:32;9.53;;;6.33;;
42226;SDS011;27892;52.378;13.122;2023-03-20T11:48:02;9.93;;;6.43;;
42226;SDS011;27892;52.378;13.122;2023-03-20T11:50:31;11.40;;;7.33;;
42226;SDS011;27892;52.378;13.122;2023-03-20T11:53:03;12.43;;;7.37;;
42226;SDS011;27892;52.378;13.122;2023-03-20T11:55:44;11.77;;;7.10;;
42226;SDS011;27892;52.378;13.122;2023-03-20T11:58:20;11.20;;;7.10;;
42226;SDS011;27892;52.378;13.122;2023-03-20T12:00:46;13.47;;;7.73;;
42226;SDS011;27892;52.378;13.122;2023-03-20T12:06:21;11.73;;;7.27;;
42226;SDS011;27892;52.378;13.122;2023-03-20T12:08:56;11.53;;;7.50;;
42226;SDS011;27892;52.378;13.122;2023-03-20T12:11:46;10.37;;;6.93;;
42226;SDS011;27892;52.378;13.122;2023-03-20T12:14:29;13.27;;;8.00;;
42226;SDS011;27892;52.378;13.122;2023-03-20T12:17:13;9.53;;;6.27;;
42226;SDS011;27892;52.378;13.122;2023-03-20T12:19:55;8.80;;;6.10;;
42226;SDS011;27892;52.378;13.122;2023-03-20T12:22:27;8.80;;;5.83;;
42226;SDS011;27892;52.378;13.122;2023-03-20T12:28:00;10.37;;;5.97;;
42226;SDS011;27892;52.378;13.122;2023-03-20T12:30:48;11.07;;;6.80;;
42226;SDS011;27892;52.378;13.122;2023-03-20T12:33:16;11.83;;;7.87;;
42226;SDS011;27892;52.378;13.122;2023-03-20T12:35:50;14.20;;;8.67;;
42226;SDS011;27892;52.378;13.122;2023-03-20T12:38:20;10.43;;;6.97;;
42226;SDS011;27892;52.378;13.122;2023-03-20T12:46:16;12.47;;;7.90;;
42226;SDS011;27892;52.378;13.122;2023-03-20T12:48:58;12.97;;;8.10;;
42226;SDS011;27892;52.378;13.122;2023-03-20T12:52:08;16.23;;;8.07;;
42226;SDS011;27892;52.378;13.122;2023-03-20T12:54:47;14.33;;;8.33;;
42226;SDS011;27892;52.378;13.122;2023-03-20T12:58:03;14.43;;;8.80;;
42226;SDS011;27892;52.378;13.122;2023-03-20T13:00:18;13.73;;;8.17;;
42226;SDS011;27892;52.378;13.122;2023-03-20T13:03:03;13.40;;;8.07;;
42226;SDS011;27892;52.378;13.122;2023-03-20T13:06:03;12.77;;;7.60;;
42226;SDS011;27892;52.378;13.122;2023-03-20T13:08:54;15.33;;;7.93;;
42226;SDS011;27892;52.378;13.122;2023-03-20T13:16:51;12.57;;;7.47;;
42226;SDS011;27892;52.378;13.122;2023-03-20T13:22:05;15.93;;;9.97;;
42226;SDS011;27892;52.378;13.122;2023-03-20T13:24:53;13.93;;;8.87;;
42226;SDS011;27892;52.378;13.122;2023-03-20T13:30:22;12.63;;;7.80;;
42226;SDS011;27892;52.378;13.122;2023-03-20T13:35:46;15.27;;;9.53;;
42226;SDS011;27892;52.378;13.122;2023-03-20T13:38:31;15.17;;;9.40;;
42226;SDS011;27892;52.378;13.122;2023-03-20T13:41:01;16.67;;;9.00;;
42226;SDS011;27892;52.378;13.122;2023-03-20T13:43:31;15.57;;;8.40;;
42226;SDS011;27892;52.378;13.122;2023-03-20T13:46:02;16.13;;;9.60;;
42226;SDS011;27892;52.378;13.122;2023-03-20T13:48:40;14.63;;;9.03;;
42226;SDS011;27892;52.378;13.122;2023-03-20T13:51:09;14.33;;;9.10;;
42226;SDS011;27892;52.378;13.122;2023-03-20T13:54:02;16.33;;;10.07;;
42226;SDS011;27892;52.378;13.122;2023-03-20T13:56:53;19.47;;;11.00;;
42226;SDS011;27892;52.378;13.122;2023-03-20T13:59:33;16.67;;;9.87;;
42226;SDS011;27892;52.378;13.122;2023-03-20T14:04:33;18.43;;;11.37;;
42226;SDS011;27892;52.378;13.122;2023-03-20T14:06:59;16.70;;;9.77;;
42226;SDS011;27892;52.378;13.122;2023-03-20T14:09:35;14.67;;;9.10;;
42226;SDS011;27892;52.378;13.122;2023-03-20T14:12:11;18.67;;;10.37;;
42226;SDS011;27892;52.378;13.122;2023-03-20T14:17:16;18.97;;;10.20;;
42226;SDS011;27892;52.378;13.122;2023-03-20T14:19:45;21.70;;;10.87;;
42226;SDS011;27892;52.378;13.122;2023-03-20T14:22:21;17.97;;;9.97;;
42226;SDS011;27892;52.378;13.122;2023-03-20T14:24:56;18.33;;;11.17;;
42226;SDS011;27892;52.378;13.122;2023-03-20T14:27:26;18.63;;;10.77;;
42226;SDS011;27892;52.378;13.122;2023-03-20T14:29:53;14.03;;;9.00;;
42226;SDS011;27892;52.378;13.122;2023-03-20T14:37:44;12.10;;;7.90;;
42226;SDS011;27892;52.378;13.122;2023-03-20T14:40:32;17.90;;;9.70;;
42226;SDS011;27892;52.378;13.122;2023-03-20T14:45:40;17.43;;;9.97;;
42226;SDS011;27892;52.378;13.122;2023-03-20T14:53:55;14.30;;;9.23;;
42226;SDS011;27892;52.378;13.122;2023-03-20T14:56:30;12.90;;;9.10;;
42226;SDS011;27892;52.378;13.122;2023-03-20T14:59:02;13.13;;;8.77;;
42226;SDS011;27892;52.378;13.122;2023-03-20T15:04:06;14.57;;;9.33;;
42226;SDS011;27892;52.378;13.122;2023-03-20T15:06:41;14.93;;;9.30;;
42226;SDS011;27892;52.378;13.122;2023-03-20T15:09:20;17.70;;;10.70;;
42226;SDS011;27892;52.378;13.122;2023-03-20T15:11:49;14.67;;;9.17;;
42226;SDS011;27892;52.378;13.122;2023-03-20T15:14:18;13.70;;;8.97;;
42226;SDS011;27892;52.378;13.122;2023-03-20T15:16:49;13.47;;;8.73;;
42226;SDS011;27892;52.378;13.122;2023-03-20T15:19:23;16.37;;;10.17;;
42226;SDS011;27892;52.378;13.122;2023-03-20T15:21:48;16.40;;;10.30;;
42226;SDS011;27892;52.378;13.122;2023-03-20T15:24:16;14.83;;;9.57;;
42226;SDS011;27892;52.378;13.122;2023-03-20T15:26:53;14.17;;;8.80;;
42226;SDS011;27892;52.378;13.122;2023-03-20T15:29:22;14.17;;;8.87;;
42226;SDS011;27892;52.378;13.122;2023-03-20T15:31:55;10.93;;;7.50;;
42226;SDS011;27892;52.378;13.122;2023-03-20T15:34:26;9.70;;;6.73;;
42226;SDS011;27892;52.378;13.122;2023-03-20T15:36:55;11.30;;;7.30;;
42226;SDS011;27892;52.378;13.122;2023-03-20T15:39:23;15.40;;;8.57;;
42226;SDS011;27892;52.378;13.122;2023-03-20T15:41:55;13.87;;;8.43;;
42226;SDS011;27892;52.378;13.122;2023-03-20T15:44:38;11.43;;;7.93;;
42226;SDS011;27892;52.378;13.122;2023-03-20T15:49:34;12.67;;;8.33;;
42226;SDS011;27892;52.378;13.122;2023-03-20T15:52:05;12.33;;;7.87;;
42226;SDS011;27892;52.378;13.122;2023-03-20T15:54:45;13.70;;;8.70;;
42226;SDS011;27892;52.378;13.122;2023-03-20T15:57:15;13.10;;;8.40;;
42226;SDS011;27892;52.378;13.122;2023-03-20T15:59:45;11.67;;;8.13;;
42226;SDS011;27892;52.378;13.122;2023-03-20T16:02:11;10.27;;;7.20;;
42226;SDS011;27892;52.378;13.122;2023-03-20T16:04:45;13.67;;;8.20;;
42226;SDS011;27892;52.378;13.122;2023-03-20T16:07:48;12.57;;;7.90;;
42226;SDS011;27892;52.378;13.122;2023-03-20T16:10:18;10.40;;;6.93;;
42226;SDS011;27892;52.378;13.122;2023-03-20T16:12:47;11.97;;;7.60;;
42226;SDS011;27892;52.378;13.122;2023-03-20T16:15:17;12.93;;;8.07;;
42226;SDS011;27892;52.378;13.122;2023-03-20T16:17:44;11.63;;;7.53;;
42226;SDS011;27892;52.378;13.122;2023-03-20T16:20:14;10.80;;;6.97;;
42226;SDS011;27892;52.378;13.122;2023-03-20T16:22:41;9.83;;;6.40;;
42226;SDS011;27892;52.378;13.122;2023-03-20T16:25:13;14.03;;;8.70;;
42226;SDS011;27892;52.378;13.122;2023-03-20T16:27:41;14.93;;;9.47;;
42226;SDS011;27892;52.378;13.122;2023-03-20T16:30:13;12.47;;;8.20;;
42226;SDS011;27892;52.378;13.122;2023-03-20T16:32:43;11.70;;;6.73;;
42226;SDS011;27892;52.378;13.122;2023-03-20T16:35:21;12.47;;;7.87;;
42226;SDS011;27892;52.378;13.122;2023-03-20T16:38:15;11.80;;;7.50;;
42226;SDS011;27892;52.378;13.122;2023-03-20T16:40:41;10.57;;;7.03;;
42226;SDS011;27892;52.378;13.122;2023-03-20T16:43:16;10.73;;;7.67;;
42226;SDS011;27892;52.378;13.122;2023-03-20T16:45:45;10.90;;;7.47;;
42226;SDS011;27892;52.378;13.122;2023-03-20T16:48:20;11.47;;;7.37;;